Tiempo atmosférico en la estación meteorológica de La Palma Aeropuerto, Santa Cruz de Tenerife (33 m.)



Fecha
DESCASC
Temp. máxima en grados centígrados (hora)
DESCASC
Temp. mínima en grados centígrados (hora)
DESCASC
Temp. media en grados centígrados
DESCASC
Racha de viento máxima en m/sg (hora)
DESCASC
Velocidad máxima media en intervalos de 10 minutos(hora)
DESCASC
Precipitaciones diarias en mm
DESCASC
Precipitaciones de 00:00 a 06:00 en mm
DESCASC
Precipitaciones de 06:00 a 12:00 en mm
DESCASC
Precipitaciones de 12:00 a 18:00 en mm
DESCASC
Precipitaciones de 18:00 a 24:00 en mm
DESCASC
15-08-2019 26.4 (13:20) 21.3 (07:10) 23.8 11.67 (18:00) 9.17 (20:30) -- 0 0 -- 0
14-08-2019 26 (13:10) 21.7 (00:00) 23.9 11.39 (12:20) 8.89 (11:50) 0 0 0 0 0
13-08-2019 25.7 (12:30) 21.8 (00:00) 23.8 13.89 (16:30) 11.67 (17:30) 0 0 0 0 0
12-08-2019 26.6 (13:40) 22.6 (00:00) 24.6 12.5 (15:50) 10 (15:50) 0 0 0 0 0
11-08-2019 28 (13:20) 22.5 (00:00) 25.3 13.89 (15:20) 10.28 (15:20) 0 0 0 0 0
10-08-2019 28.3 (12:30) 23.1 (00:00) 25.7 9.72 (23:40) 7.5 (20:40) 0 0 0 0 0
09-08-2019 26.9 (12:20) 21.6 (00:00) 24.3 6.67 (08:20) 5 (10:40) 0 0 0 0 0
08-08-2019 26.6 (15:10) 21.8 (00:00) 24.2 6.11 (03:50) 4.17 (02:10) 0 0 0 0 0
07-08-2019 27.5 (14:10) 22.4 (00:00) 24.9 8.33 (01:10) 6.94 (11:00) 0 0 0 0 0
06-08-2019 26.9 (12:10) 21.5 (00:00) 24.2 17.5 (21:00) 9.72 (18:20) 0 0 0 0 0
05-08-2019 26.8 (10:00) 21.9 (00:00) 24.3 13.33 (14:50) 10.83 (15:00) 0 0 0 0 0
04-08-2019 27.6 (15:20) 22.4 (00:00) 25 13.33 (19:40) 10.83 (19:40) 0 0 0 0 0
03-08-2019 25.2 (14:40) 21.1 (00:00) 23.2 12.78 (13:30) 10 (12:10) 0 0 0 0 0
02-08-2019 26 (12:30) 21.6 (00:00) 23.8 10.28 (20:00) 8.33 (20:30) 0 0 0 0 0
01-08-2019 26 (13:30) 21 (00:00) 23.5 11.67 (02:30) 9.17 (02:40) 0 0 0 0 0
31-07-2019 25.2 (14:00) 20.6 (00:00) 22.9 15 (06:50) 11.94 (22:30) 0 0 0 0 0
30-07-2019 25.2 (12:40) 21.8 (00:00) 23.5 13.89 (13:40) 10.83 (13:30) 0.1 0 0.1 0 0
29-07-2019 25.9 (15:30) 21.7 (00:00) 23.8 13.89 (12:50) 11.11 (13:30) 0 0 0 0 0
28-07-2019 26 (15:10) 21.7 (00:00) 23.9 13.33 (13:40) 11.11 (15:20) 0 0 0 0 0
27-07-2019 25.7 (12:30) 21.6 (00:00) 23.7 11.39 (00:50) 9.17 (14:20) 0 0 0 0 0
26-07-2019 26.6 (14:50) 22.5 (00:00) 24.6 11.39 (19:30) 8.61 (19:40) 0 0 0 0 0
25-07-2019 26.2 (13:50) 19 (00:00) 22.6 11.67 (19:00) 9.44 (20:00) 0 0 0 0 0
24-07-2019 26.2 (14:50) 20.9 (00:00) 23.6 11.67 (10:10) 8.89 (10:50) 0 0 0 0 0
23-07-2019 24.7 (13:20) 20.4 (00:00) 22.6 15.28 (19:50) 11.67 (19:50) 0 0 0 0 0
22-07-2019 24.8 (12:10) 21.2 (00:00) 23 14.44 (20:00) 11.67 (21:10) 0 0 0 0 0
21-07-2019 26.6 (14:20) 21.9 (00:00) 24.3 9.72 (23:59) 7.78 (23:50) 0 0 0 0 0
20-07-2019 26.7 (14:50) 20.9 (00:00) 23.8 16.39 (01:30) 12.22 (01:30) 0 0 0 0 0
19-07-2019 25.5 (14:00) 21.4 (00:00) 23.4 17.5 (10:50) 12.78 (16:20) 0 0 0 0 0
18-07-2019 24.8 (13:10) 21.4 (00:00) 23.1 15.28 (16:30) 12.5 (16:40) 0 0 0 0 0

Gráficas

Temp. máximas Temp. mínimas Temp. medias Precipitaciones Rachas de viento máximas Velocidades máximas media en intervalos de 10 minutos

Datos horarios

Fecha y hora oficial Temperatura (ºC) Velocidad del viento (km/h) Dirección del viento Racha (km/h) Dirección de racha Precipitación (mm) Presión (hPa) Tendencia (hPa) Humedad (%)
2019-08-16 23:00:00 23.3 24 Norte 32 Norte 0 1011.2 1.2 85
2019-08-16 22:00:00 23.3 26 Norte 33 Norte 0 1010.7 0.9 87
2019-08-16 21:00:00 23.5 25 Norte 35 Norte 0 1010.4 0.5 87
2019-08-16 20:00:00 23.9 27 Norte 37 Norte 0 1010 0 85
2019-08-16 19:00:00 24.6 28 Norte 37 Norte 0 1009.8 -0.3 81
2019-08-16 18:00:00 25.2 26 Norte 33 Norte 0 1009.9 -0.8 78
2019-08-16 17:00:00 26.2 21 Norte 35 Norte 0 1010 -1 74
2019-08-16 16:00:00 26.5 23 Norte 33 Norte 0 1010.1 -1.1 72
2019-08-16 15:00:00 26.8 22 Norte 32 Norte 0 1010.7 -1 70
2019-08-16 14:00:00 26.7 25 Norte 33 Norte 0 1011 -0.6 69
2019-08-16 13:00:00 26.5 22 Norte 32 Norte 0 1011.2 -0.4 71
2019-08-16 12:00:00 26.2 23 Norte 32 Norte 0 1011.7 0.1 71
2019-08-16 11:00:00 25.4 26 Norte 33 Norte 0 1011.6 0.5 73
2019-08-16 10:00:00 24.5 23 Norte 37 Norte 0 1011.6 0.9 75
2019-08-16 09:00:00 23.3 18 Norte 33 Norte 0 1011.6 0.8 76
2019-08-16 08:00:00 22.6 23 Norte 37 Norte 0 1011.1 0 79
2019-08-16 07:00:00 22.7 17 Norte 30 Norte 0 1010.7 -0.5 75
2019-08-16 06:00:00 22.6 15 Norte 30 Norte 0 1010.8 -0.8 75
2019-08-16 05:00:00 22.6 19 Norte 41 Norte 0 1011.1 -1 75
2019-08-16 04:00:00 22.7 29 Norte 39 Norte 0 1011.2 -1.4 82
2019-08-16 03:00:00 22.9 24 Norte 35 Norte 0 1011.6 -1.4 81
2019-08-16 02:00:00 22.9 17 Norte 35 Norte 0 1012.1 -1 77
2019-08-16 01:00:00 23.3 16 Norte 30 Noroeste 0 1012.6 0.1 74
2019-08-16 00:00:00 23.3 18 Norte 30 Nordeste 0 1013 0.7 75
2019-08-15 23:00:00 23.4 23 Norte 41 Norte 0 1013.1 1 77
2019-08-15 22:00:00 23.3 23 Norte 39 Norte 0 1012.5 0.3 80
2019-08-15 21:00:00 23.3 30 Norte 42 Norte 0 1012.3 -0.2 80
2019-08-15 20:00:00 23.6 29 Norte 37 Norte 0 1012.1 -0.4 78
2019-08-15 19:00:00 24.1 29 Norte 39 Norte 0 1012.2 -0.7 78
2019-08-15 18:00:00 24.5 31 Norte 42 Nordeste 0 1012.5 -0.9 76
2019-08-15 17:00:00 25 30 Norte -- -- -- 1012.5 -1.2 74
2019-08-15 16:00:00 25.5 28 Norte 37 Nordeste 0 1012.9 -1.1 71
2019-08-15 15:00:00 25.6 26 Norte 37 Norte 0 1013.4 -0.8 70
2019-08-15 14:00:00 25.9 26 Norte 35 Nordeste 0 1013.7 -0.1 68
2019-08-15 13:00:00 25.5 26 Norte 35 Norte 0 1014 0.6 69
2019-08-15 12:00:00 25.2 27 Norte 37 Nordeste 0 1014.2 0.9 67
2019-08-15 11:00:00 24.4 31 Norte 41 Nordeste 0 1013.8 0.6 71
2019-08-15 10:00:00 23.9 30 Norte 37 Norte 0 1013.4 0.3 71
2019-08-15 09:00:00 22.9 21 Norte 30 Norte 0 1013.3 0.2 71
2019-08-15 08:00:00 21.4 17 Noroeste 28 Noroeste 0 1013.2 -0.2 70
2019-08-15 07:00:00 21.6 16 Noroeste 30 Noroeste 0 1013.1 -0.5 69
2019-08-15 06:00:00 21.6 16 Noroeste 32 Noroeste 0 1013.1 -0.9 69
2019-08-15 05:00:00 21.7 16 Noroeste 32 Noroeste 0 1013.4 -1.1 70
2019-08-15 04:00:00 21.7 15 Noroeste 24 Noroeste 0 1013.6 -1 69
2019-08-15 03:00:00 21.8 15 Noroeste 26 Noroeste 0 1014 -0.7 69
2019-08-15 02:00:00 22 16 Noroeste 28 Norte 0 1014.5 -0.3 71
2019-08-15 01:00:00 22.1 15 Noroeste 30 Norte 0 1014.6 0.2 70
2019-08-15 00:00:00 22.3 20 Norte 32 Norte 0 1014.7 0.9 71
2019-08-14 23:00:00 22.4 13 Norte 33 Norte 0 1014.8 1.3 72
2019-08-14 22:00:00 22.6 21 Norte 35 Norte 0 1014.4 0.9 74
2019-08-14 21:00:00 22.9 28 Norte 35 Norte 0 1013.8 0 78
2019-08-14 20:00:00 23.2 27 Norte 35 Norte 0 1013.5 -0.3 77
2019-08-14 19:00:00 23.6 28 Norte 37 Nordeste 0 1013.5 -0.3 75
2019-08-14 18:00:00 24.1 27 Norte 37 Nordeste 0 1013.8 -0.6 73
2019-08-14 17:00:00 24.8 29 Norte 37 Norte 0 1013.8 -1.1 69
2019-08-14 16:00:00 25.3 27 Norte 33 Norte 0 1013.8 -1.4 67
2019-08-14 15:00:00 24.9 27 Norte 33 Nordeste 0 1014.4 -0.9 69
2019-08-14 14:00:00 25.1 27 Norte 37 Nordeste 0 1014.9 -0.2 67
2019-08-14 13:00:00 25.6 29 Norte 41 Nordeste 0 1015.2 0.4 66
2019-08-14 12:00:00 24.8 31 Norte 39 Nordeste 0 1015.3 0.8 67
2019-08-14 11:00:00 24.5 29 Norte 37 Norte 0 1015.1 1 68
2019-08-14 10:00:00 24.4 24 Norte 37 Norte 0 1014.8 0.9 63
2019-08-14 09:00:00 23.2 27 Norte 35 Norte 0 1014.5 0.7 69
2019-08-14 08:00:00 21.9 18 Norte 32 Norte 0 1014.1 0.3 69
2019-08-14 07:00:00 21.9 19 Noroeste 28 Noroeste 0 1013.9 -0.1 66
2019-08-14 06:00:00 21.8 19 Noroeste 32 Noroeste 0 1013.8 -0.6 69
2019-08-14 05:00:00 21.8 20 Noroeste 33 Norte 0 1013.8 -1.1 68
2019-08-14 04:00:00 22.4 23 Norte 33 Norte 0 1014 -1.3 73
2019-08-14 03:00:00 22.3 25 Norte 35 Norte 0 1014.4 -1 74
2019-08-14 02:00:00 22 14 Noroeste 33 Norte 0 1014.9 -0.4 65
2019-08-14 01:00:00 22.2 19 Norte 32 Norte 0 1015.3 0.5 72
2019-08-14 00:00:00 22.6 24 Norte 35 Norte 0 1015.4 1 75
2019-08-13 23:00:00 22.7 28 Norte 39 Norte 0 1015.3 1 75
2019-08-13 22:00:00 22.8 26 Norte 39 Norte 0 1014.8 0.5 74
2019-08-13 21:00:00 22.9 30 Norte 42 Norte 0 1014.4 0.1 75
2019-08-13 20:00:00 23.1 34 Norte 45 Norte 0 1014.3 0.2 76
2019-08-13 19:00:00 23.7 35 Norte 50 Norte 0 1014.3 -0.1 74
2019-08-13 18:00:00 24.1 37 Norte 50 Nordeste 0 1014.3 -0.4 71
2019-08-13 17:00:00 24.5 40 Norte 50 Nordeste 0 1014.1 -1 71
2019-08-13 16:00:00 24.9 38 Norte 46 Norte 0 1014.4 -1 70
2019-08-13 15:00:00 25 39 Nordeste 48 Nordeste 0 1014.7 -0.9 70
2019-08-13 14:00:00 25.4 35 Norte 42 Norte 0 1015.1 -0.5 67
2019-08-13 13:00:00 25.4 32 Norte 41 Norte 0 1015.4 0.3 67
2019-08-13 12:00:00 25.2 32 Norte 39 Norte 0 1015.6 0.7 68
2019-08-13 11:00:00 24.8 31 Norte 39 Norte 0 1015.6 1.1 69
2019-08-13 10:00:00 24.4 28 Norte 39 Norte 0 1015.1 0.7 71
2019-08-13 09:00:00 23.4 26 Norte 35 Norte 0 1014.9 0.8 73
2019-08-13 08:00:00 22.2 25 Norte 39 Norte 0 1014.5 0.2 75
2019-08-13 07:00:00 22.5 26 Norte 39 Norte 0 1014.4 -0.3 74
2019-08-13 06:00:00 22.2 21 Noroeste 37 Norte 0 1014.1 -0.8 67
2019-08-13 05:00:00 22.7 29 Norte 39 Norte 0 1014.3 -0.9 77
2019-08-13 04:00:00 22.5 30 Norte 41 Norte 0 1014.7 -1 79
2019-08-13 03:00:00 22.7 27 Norte 39 Norte 0 1014.9 -1 77
2019-08-13 02:00:00 22.6 18 Norte 37 Norte 0 1015.2 -0.7 66
2019-08-13 01:00:00 22.8 18 Norte 35 Norte 0 1015.7 0.5 73
2019-08-13 00:00:00 22.9 29 Norte 37 Norte 0 1015.9 1.1 75
2019-08-12 23:00:00 23.1 30 Norte 41 Norte 0 1015.9 1.8 75
2019-08-12 22:00:00 23.1 30 Norte 39 Norte 0 1015.2 1.5 78
2019-08-12 21:00:00 23.3 28 Norte 39 Norte 0 1014.8 0.9 77
2019-08-12 20:00:00 23.6 32 Norte 41 Norte 0 1014.1 0.2 75
2019-08-12 19:00:00 24.1 35 Norte 42 Norte 0 1013.7 -0.3 74
2019-08-12 18:00:00 24.6 30 Norte 41 Norte 0 1013.9 -0.7 72
2019-08-12 17:00:00 25.3 30 Norte 41 Nordeste 0 1013.9 -0.8 69
2019-08-12 16:00:00 25.4 33 Nordeste 45 Nordeste 0 1014 -1.2 70
2019-08-12 15:00:00 25.8 32 Norte 41 Norte 0 1014.6 -0.8 68
2019-08-12 14:00:00 25.9 34 Nordeste 42 Norte 0 1014.7 -0.4 70
2019-08-12 13:00:00 26.2 29 Norte 37 Norte 0 1015.2 0.4 68
2019-08-12 12:00:00 25.8 28 Norte 37 Norte 0 1015.4 0.8 68
2019-08-12 11:00:00 25.1 28 Norte 37 Norte 0 1015.1 0.9 70
2019-08-12 10:00:00 24.5 22 Norte 33 Norte 0 1014.8 0.7 73
2019-08-12 09:00:00 23.5 27 Norte 33 Norte 0 1014.6 0.9 77
2019-08-12 08:00:00 23.1 25 Norte 35 Norte 0 1014.2 0.5 76
2019-08-12 07:00:00 23 23 Norte 39 Norte 0 1014.1 0 77
2019-08-12 06:00:00 23 21 Norte 35 Norte 0 1013.7 -1 76
2019-08-12 05:00:00 23.2 30 Norte 41 Norte 0 1013.7 -1.7 79
2019-08-12 04:00:00 22.8 17 Noroeste 35 Norte 0 1014.1 -1.6 70
2019-08-12 03:00:00 23.1 17 Noroeste 33 Noroeste 0 1014.7 -1.1 61
2019-08-12 02:00:00 23.2 26 Norte 35 Norte 0 1015.4 -0.5 74
2019-08-12 01:00:00 22.9 18 Noroeste 33 Norte 0 1015.7 0.2 72
2019-08-12 00:00:00 23.2 19 Noroeste 33 Noroeste 0 1015.8 0.8 69
2019-08-11 23:00:00 23.1 19 Noroeste 39 Norte 0 1015.9 1.2 72
2019-08-11 22:00:00 23.6 30 Norte 39 Norte 0 1015.5 1.1 78
2019-08-11 21:00:00 23.7 33 Norte 41 Norte 0 1015 0.9 79
2019-08-11 20:00:00 23.9 30 Norte 37 Norte 0 1014.7 0.4 78
2019-08-11 19:00:00 24.3 31 Norte 46 Nordeste 0 1014.4 -0.2 77
2019-08-11 18:00:00 24.6 34 Norte 42 Norte 0 1014.1 -0.6 77
2019-08-11 17:00:00 24.8 34 Norte 42 Nordeste 0 1014.3 -0.6 77
2019-08-11 16:00:00 25.4 32 Norte 50 Nordeste 0 1014.6 -0.8 77
2019-08-11 15:00:00 26.9 28 Norte 41 Norte 0 1014.7 -0.7 72
2019-08-11 14:00:00 27.3 27 Norte 39 Norte 0 1014.9 -0.5 69
2019-08-11 13:00:00 27.3 30 Norte 39 Norte 0 1015.4 0.1 63
2019-08-11 12:00:00 26.5 31 Norte 39 Nordeste 0 1015.4 0.3 73
2019-08-11 11:00:00 26.3 30 Norte 39 Nordeste 0 1015.4 0.4 73
2019-08-11 10:00:00 26.1 28 Norte 37 Norte 0 1015.3 0.7 73
2019-08-11 09:00:00 24.9 18 Norte 35 Noroeste 0 1015.1 0.6 74
2019-08-11 08:00:00 22.8 24 Norte 48 Norte 0 1015 0.5 91
2019-08-11 07:00:00 23.9 19 Norte 33 Norte 0 1014.6 0 83
2019-08-11 06:00:00 24.5 26 Norte 32 Norte 0 1014.5 -0.5 83
2019-08-11 05:00:00 24.8 23 Norte 30 Norte 0 1014.5 -1.1 80
2019-08-11 04:00:00 25 17 Noroeste 32 Norte 0 1014.6 -1.2 72
2019-08-11 03:00:00 25.1 22 Noroeste 33 Noroeste 0 1015 -0.7 71
2019-08-11 02:00:00 24.6 23 Norte 35 Norte 0 1015.6 -0.1 76
2019-08-11 01:00:00 24.1 25 Norte 37 Norte 0 1015.8 0.3 82
2019-08-11 00:00:00 24.2 22 Norte 35 Nordeste 0 1015.7 0.5 88
2019-08-10 23:00:00 25 24 Norte 33 Norte 0 1015.7 0.8 82
2019-08-10 22:00:00 24.6 22 Norte 32 Norte 0 1015.5 0.7 83
2019-08-10 21:00:00 24.8 24 Norte 33 Norte 0 1015.2 0.1 83
2019-08-10 20:00:00 25.5 20 Norte 26 Noroeste 0 1014.9 -0.3 79
2019-08-10 19:00:00 25.7 10 Noroeste 24 Norte 0 1014.8 -0.7 75
2019-08-10 18:00:00 26.1 14 Noroeste 28 Oeste 0 1015.1 -0.8 74
2019-08-10 17:00:00 26.8 11 Norte 21 Norte 0 1015.2 -1.1 74
2019-08-10 16:00:00 26.5 12 Norte 22 Norte 0 1015.5 -1 75
2019-08-10 15:00:00 27.5 12 Norte 30 Nordeste 0 1015.9 -0.5 70
2019-08-10 14:00:00 27.4 18 Norte 28 Norte 0 1016.3 0.3 71
2019-08-10 13:00:00 27.6 15 Norte 24 Norte 0 1016.5 1.2 69
2019-08-10 12:00:00 26.9 13 Norte 24 Norte 0 1016.4 1.7 69
2019-08-10 11:00:00 26.4 10 Norte 18 Norte 0 1016 1.5 71
2019-08-10 10:00:00 26.2 12 Norte 17 Norte 0 1015.3 1 70
2019-08-10 09:00:00 25.4 11 Norte 21 Noroeste 0 1014.7 0.5 71
2019-08-10 08:00:00 24.2 13 Noroeste 24 Norte 0 1014.5 0.1 72
2019-08-10 07:00:00 24 14 Noroeste 28 Norte 0 1014.3 -0.5 76
2019-08-10 06:00:00 23.9 14 Noroeste 24 Noroeste 0 1014.2 -1 72
2019-08-10 05:00:00 24 18 Norte 32 Norte 0 1014.4 -1 80
2019-08-10 04:00:00 24.2 14 Noroeste 21 Norte 0 1014.8 -0.9 69
2019-08-10 03:00:00 23.5 13 Norte 24 Norte 0 1015.2 -0.7 76
2019-08-10 02:00:00 23.4 9 Norte 21 Norte 0 1015.4 -0.3 76
2019-08-10 01:00:00 23.3 12 Norte 21 Noroeste 0 1015.7 0.7 78
2019-08-10 00:00:00 23.4 14 Noroeste 21 Norte 0 1015.9 1.4 80
2019-08-09 23:00:00 23.5 14 Norte 18 Norte 0 1015.7 1.7 83
2019-08-09 22:00:00 23.8 13 Norte 21 Norte 0 1015 1.2 81
2019-08-09 21:00:00 24.1 17 Norte 22 Norte 0 1014.5 0.5 80
2019-08-09 20:00:00 24.6 15 Norte 21 Norte 0 1014 -0.1 76
2019-08-09 19:00:00 25.1 13 Norte 17 Norte 0 1013.8 -0.5 75
2019-08-09 18:00:00 25.2 12 Norte 15 Norte 0 1014 -0.4 74
2019-08-09 17:00:00 25.6 10 Norte 17 Norte 0 1014.1 -0.6 72
2019-08-09 16:00:00 26 12 Norte 17 Norte 0 1014.3 -0.4 70
2019-08-09 15:00:00 26.6 13 Norte 18 Nordeste 0 1014.4 0.1 67
2019-08-09 14:00:00 26.1 13 Nordeste 21 Nordeste 0 1014.7 0.7 69
2019-08-09 13:00:00 25.7 14 Nordeste 21 Nordeste 0 1014.7 0.8 71
2019-08-09 12:00:00 26.1 16 Nordeste 21 Norte 0 1014.3 0.8 69
2019-08-09 11:00:00 25.5 16 Norte 22 Nordeste 0 1014 0.4 69
2019-08-09 10:00:00 25.4 13 Norte 21 Norte 0 1013.9 0.7 70
2019-08-09 09:00:00 23.3 13 Norte 24 Norte 0 1013.5 0.4 74
2019-08-09 08:00:00 22.3 12 Norte 18 Noroeste 0 1013.6 0.3 77
2019-08-09 07:00:00 21.9 10 Noroeste 15 Noroeste 0 1013.2 -0.3 77
2019-08-09 06:00:00 22.4 12 Noroeste 17 Noroeste 0 1013.1 -1 76
2019-08-09 05:00:00 22.4 10 Noroeste 17 Noroeste 0 1013.3 -1 75
2019-08-09 04:00:00 22.1 12 Oeste 18 Noroeste 0 1013.5 -0.9 76
2019-08-09 03:00:00 22.5 11 Oeste 17 Noroeste 0 1014.1 0 75
2019-08-09 02:00:00 23 12 Noroeste 17 Noroeste 0 1014.3 0.5 74
2019-08-09 01:00:00 23 10 Noroeste 15 Oeste 0 1014.4 0.9 75
2019-08-09 00:00:00 23.1 11 Noroeste 18 Norte 0 1014.1 1.4 75
2019-08-08 23:00:00 23.6 14 Norte 21 Norte 0 1013.8 1.5 77
2019-08-08 22:00:00 23.8 15 Norte 21 Nordeste 0 1013.5 1.4 76
2019-08-08 21:00:00 24 14 Nordeste 18 Nordeste 0 1012.7 0.5 76
2019-08-08 20:00:00 24.4 12 Nordeste 17 Nordeste 0 1012.3 0.2 74
2019-08-08 19:00:00 24.9 10 Norte 15 Norte 0 1012.1 0 73
2019-08-08 18:00:00 24.8 11 Nordeste 15 Nordeste 0 1012.2 0.2 73
2019-08-08 17:00:00 24.9 6 Nordeste 15 Nordeste 0 1012.1 -0.3 71
2019-08-08 16:00:00 25.2 8 Nordeste 15 Norte 0 1012.1 -0.3 70
2019-08-08 15:00:00 25.8 10 Nordeste 15 Nordeste 0 1012 -0.3 68
2019-08-08 14:00:00 26 13 Nordeste 18 Nordeste 0 1012.4 0.1 67
2019-08-08 13:00:00 26.1 12 Norte 15 Norte 0 1012.4 0.6 68
2019-08-08 12:00:00 25.9 9 Nordeste 15 Nordeste 0 1012.3 0.7 69
2019-08-08 11:00:00 25.5 8 Norte 15 Norte 0 1012.3 1 68
2019-08-08 10:00:00 25.3 10 Norte 18 Norte 0 1011.8 0.8 64
2019-08-08 09:00:00 23.5 10 Norte 17 Oeste 0 1011.6 0.6 67
2019-08-08 08:00:00 22.2 13 Oeste 17 Oeste 0 1011.3 0.3 70
2019-08-08 07:00:00 22.7 11 Oeste 21 Oeste 0 1011 -0.3 69
2019-08-08 06:00:00 22.6 13 Oeste 18 Oeste 0 1011 -0.7 70
2019-08-08 05:00:00 22.7 12 Noroeste 21 Oeste 0 1011 -1.2 71
2019-08-08 04:00:00 22.5 13 Noroeste 22 Noroeste 0 1011.3 -1.4 73
2019-08-08 03:00:00 21.9 14 Oeste 21 Oeste 0 1011.7 -1 72
2019-08-08 02:00:00 22 15 Oeste 18 Oeste 0 1012.2 -0.5 71
2019-08-08 01:00:00 22.3 13 Oeste 17 Oeste 0 1012.7 0.6 69
2019-08-08 00:00:00 22.4 11 Oeste 17 Noroeste 0 1012.7 0.9 72
2019-08-07 23:00:00 23 10 Noroeste 22 Norte 0 1012.7 1.1 76
2019-08-07 22:00:00 23.4 19 Norte 26 Norte 0 1012.1 0.3 78
2019-08-07 21:00:00 23.5 17 Norte 28 Nordeste 0 1011.8 -0.2 78
2019-08-07 20:00:00 24.2 17 Norte 22 Norte 0 1011.6 -0.6 76
2019-08-07 19:00:00 24.7 14 Norte 18 Norte 0 1011.8 -0.6 74
2019-08-07 18:00:00 25.4 14 Norte 21 Norte 0 1012 -0.6 72
2019-08-07 17:00:00 26.5 14 Norte 21 Norte 0 1012.2 -0.6 68
2019-08-07 16:00:00 26.1 14 Norte 18 Norte 0 1012.4 -0.5 70
2019-08-07 15:00:00 26.7 16 Norte 21 Norte 0 1012.6 -0.1 67
2019-08-07 14:00:00 27 15 Norte 21 Norte 0 1012.8 0.2 65
2019-08-07 13:00:00 26.7 11 Norte 22 Norte 0 1012.9 0.4 65
2019-08-07 12:00:00 26.2 18 Norte 30 Nordeste 0 1012.7 0.4 67
2019-08-07 11:00:00 25.2 25 Nordeste 30 Nordeste 0 1012.6 0.7 70
2019-08-07 10:00:00 25.7 18 Norte 24 Norte 0 1012.5 1 65
2019-08-07 09:00:00 24.3 14 Noroeste 21 Noroeste 0 1012.3 1 61
2019-08-07 08:00:00 23 14 Noroeste 28 Oeste 0 1011.9 0.7 64
2019-08-07 07:00:00 22.7 14 Noroeste 26 Noroeste 0 1011.5 0.1 63
2019-08-07 06:00:00 23.2 17 Noroeste 24 Oeste 0 1011.3 -0.5 60
2019-08-07 05:00:00 23.3 15 Noroeste 30 Noroeste 0 1011.2 -1.3 60
2019-08-07 04:00:00 23.8 20 Noroeste 26 Noroeste 0 1011.4 -1.4 60
2019-08-07 03:00:00 23.7 18 Noroeste 26 Norte 0 1011.8 -1 63
2019-08-07 02:00:00 23.3 14 Norte 30 Norte 0 1012.5 -0.6 72
2019-08-07 01:00:00 23.8 14 Norte 28 Noroeste 0 1012.8 -0.1 62
2019-08-07 00:00:00 23.3 19 Norte 33 Norte 0 1012.8 0.5 67
2019-08-06 23:00:00 23.1 24 Norte 33 Norte 0 1013.1 1.4 81
2019-08-06 22:00:00 23.1 24 Norte 37 Nordeste 0 1012.9 1.1 81
2019-08-06 21:00:00 23.5 29 Norte 63 Nordeste 0 1012.3 0.6 79
2019-08-06 20:00:00 24 32 Norte 39 Norte 0 1011.7 -0.2 74
2019-08-06 19:00:00 24 31 Nordeste 41 Nordeste 0 1011.8 -0.8 80
2019-08-06 18:00:00 24.8 30 Norte 41 Nordeste 0 1011.7 -1.3 72
2019-08-06 17:00:00 25.1 32 Nordeste 41 Nordeste 0 1011.9 -1.6 69
2019-08-06 16:00:00 25.6 28 Norte 37 Norte 0 1012.6 -1.3 69
2019-08-06 15:00:00 25.4 31 Nordeste 42 Nordeste 0 1013 -0.9 69
2019-08-06 14:00:00 25.4 29 Norte 37 Norte 0 1013.5 -0.3 69
2019-08-06 13:00:00 26 21 Norte 30 Nordeste 0 1013.9 0.3 64
2019-08-06 12:00:00 26.6 17 Norte 22 Norte 0 1013.9 0.6 60
2019-08-06 11:00:00 25.1 16 Norte 26 Nordeste 0 1013.8 0.5 71
2019-08-06 10:00:00 24.6 18 Nordeste 24 Nordeste 0 1013.6 0.3 72
2019-08-06 09:00:00 23.5 10 Norte 21 Norte 0 1013.3 0.1 67
2019-08-06 08:00:00 22.1 8 Noroeste 21 Nordeste 0 1013.3 0.1 75
2019-08-06 07:00:00 21.8 9 Norte 22 Norte 0 1013.3 -0.1 77
2019-08-06 06:00:00 22.1 10 Noroeste 30 Norte 0 1013.2 -0.6 78
2019-08-06 05:00:00 22.5 19 Norte 32 Norte 0 1013.2 -1.1 78
2019-08-06 04:00:00 22.6 23 Norte 30 Nordeste 0 1013.4 -1.1 81
2019-08-06 03:00:00 23.3 13 Norte 28 Nordeste 0 1013.8 -0.7 71
2019-08-06 02:00:00 22.5 6 Oeste 17 Noroeste 0 1014.3 0 72
2019-08-06 01:00:00 22.5 19 Norte 32 Nordeste 0 1014.5 0.5 81
2019-08-06 00:00:00 22 5 Sudoeste 33 Norte 0 1014.5 0.9 78
2019-08-05 23:00:00 22.6 24 Norte 32 Norte 0 1014.3 1 84
2019-08-05 22:00:00 22.8 23 Norte 35 Norte 0 1014 0.7 84
2019-08-05 21:00:00 22.9 25 Norte 35 Norte 0 1013.6 0.1 84
2019-08-05 20:00:00 23.2 27 Nordeste 37 Nordeste 0 1013.3 -0.2 83
2019-08-05 19:00:00 23.7 29 Norte 39 Nordeste 0 1013.3 -0.2 81
2019-08-05 18:00:00 25 19 Norte 35 Nordeste 0 1013.5 0 76
2019-08-05 17:00:00 25 26 Nordeste 41 Nordeste 0 1013.5 -0.6 75
2019-08-05 16:00:00 25.1 34 Nordeste 48 Nordeste 0 1013.5 -0.9 74
2019-08-05 15:00:00 25 39 Nordeste 48 Nordeste 0 1013.5 -0.9 76
2019-08-05 14:00:00 25.3 33 Nordeste 42 Nordeste 0 1014.1 -0.3 76
2019-08-05 13:00:00 25.2 29 Nordeste 39 Nordeste 0 1014.4 0 77
2019-08-05 12:00:00 24.8 28 Nordeste 45 Nordeste 0 1014.4 0.1 80
2019-08-05 11:00:00 25.8 31 Norte 37 Norte 0 1014.4 0.4 66
2019-08-05 10:00:00 26.6 19 Norte 37 Norte 0 1014.4 0.6 55
2019-08-05 09:00:00 24.7 29 Norte 37 Norte 0 1014.3 0.4 69
2019-08-05 08:00:00 23.5 19 Norte 28 Norte 0 1014 0.1 68
2019-08-05 07:00:00 23.5 17 Noroeste 30 Norte 0 1013.8 -0.5 61
2019-08-05 06:00:00 23.6 26 Norte 32 Norte 0 1013.9 -0.7 73
2019-08-05 05:00:00 23.5 17 Norte 32 Norte 0 1013.9 -0.9 64
2019-08-05 04:00:00 23.1 24 Norte 32 Norte 0 1014.3 -0.9 76
2019-08-05 03:00:00 23.2 21 Norte 39 Nordeste 0 1014.6 -0.8 76
2019-08-05 02:00:00 23 22 Norte 30 Norte 0 1014.8 -0.2 77
2019-08-05 01:00:00 23.1 23 Nordeste 30 Nordeste 0 1015.2 0.6 78
2019-08-05 00:00:00 23.5 22 Norte 33 Norte 0 1015.4 1.1 73
2019-08-04 23:00:00 23.7 23 Norte 37 Norte 0 1015 1.2 70
2019-08-04 22:00:00 23.5 29 Norte 35 Norte 0 1014.6 1.1 71
2019-08-04 21:00:00 23.7 28 Norte 42 Norte 0 1014.3 0.6 73
2019-08-04 20:00:00 24 33 Nordeste 48 Nordeste 0 1013.8 0.1 73
2019-08-04 19:00:00 24.7 33 Norte 45 Norte 0 1013.5 -0.6 70
2019-08-04 18:00:00 25 31 Norte 41 Norte 0 1013.7 -0.8 67
2019-08-04 17:00:00 25.7 32 Norte 39 Nordeste 0 1013.7 -1 62
2019-08-04 16:00:00 27 17 Norte 24 Norte 0 1014.1 -1 56
2019-08-04 15:00:00 26.9 14 Norte 24 Noroeste 0 1014.5 -0.7 56
2019-08-04 14:00:00 26.6 17 Norte 32 Nordeste 0 1014.7 -0.3 55
2019-08-04 13:00:00 25.8 24 Nordeste 33 Nordeste 0 1015.1 0.2 60
2019-08-04 12:00:00 25.6 21 Norte 30 Norte 0 1015.2 0.9 64
2019-08-04 11:00:00 25.2 24 Norte 33 Norte 0 1015 0.8 71
2019-08-04 10:00:00 24.2 23 Norte 32 Nordeste 0 1014.9 1 75
2019-08-04 09:00:00 23.3 14 Norte 28 Norte 0 1014.3 0.7 62
2019-08-04 08:00:00 22.7 17 Noroeste 37 Norte 0 1014.2 0.5 63
2019-08-04 07:00:00 23.1 26 Norte 39 Norte 0 1013.9 -0.2 70
2019-08-04 06:00:00 23 27 Norte 35 Norte 0 1013.6 -0.6 69
2019-08-04 05:00:00 23 22 Norte 32 Norte 0 1013.7 -1 71
2019-08-04 04:00:00 22.6 18 Norte 30 Norte 0 1014.1 -0.9 78
2019-08-04 03:00:00 23.2 24 Norte 32 Norte 0 1014.2 -1.2 73
2019-08-04 02:00:00 23.3 14 Noroeste 26 Noroeste 0 1014.7 -0.3 61
2019-08-04 01:00:00 23.4 16 Noroeste 28 Noroeste 0 1015 0.4 61
2019-08-04 00:00:00 23.3 20 Norte 33 Norte 0 1015.4 1.4 65
2019-08-03 23:00:00 22.9 28 Norte 42 Norte 0 1015 1.3 71
2019-08-03 22:00:00 23 27 Norte 45 Nordeste 0 1014.6 0.9 70
2019-08-03 21:00:00 23.1 32 Norte 45 Norte 0 1014 0.1 72
2019-08-03 20:00:00 23.2 32 Norte 42 Norte 0 1013.7 -0.5 72
2019-08-03 19:00:00 23.7 27 Norte 39 Nordeste 0 1013.7 -0.9 72
2019-08-03 18:00:00 23.9 30 Norte 42 Nordeste 0 1013.9 -1.4 70
2019-08-03 17:00:00 24.1 35 Nordeste 45 Nordeste 0 1014.2 -1.2 69
2019-08-03 16:00:00 24.8 31 Nordeste 41 Nordeste 0 1014.6 -0.9 65
2019-08-03 15:00:00 24.6 28 Nordeste 46 Nordeste 0 1015.3 -0.2 69
2019-08-03 14:00:00 24.4 33 Nordeste 46 Nordeste 0 1015.4 0 69
2019-08-03 13:00:00 24.4 33 Nordeste 45 Nordeste 0 1015.5 0.6 71
2019-08-03 12:00:00 24.1 33 Nordeste 45 Nordeste 0 1015.5 0.8 72
2019-08-03 11:00:00 24 30 Norte 39 Norte 0 1015.4 1.1 71
2019-08-03 10:00:00 23.1 27 Nordeste 32 Nordeste 0 1014.9 1 75
2019-08-03 09:00:00 22.1 12 Noroeste 21 Noroeste 0 1014.7 0.9 68
2019-08-03 08:00:00 21.6 14 Noroeste 24 Norte 0 1014.3 0.4 70
2019-08-03 07:00:00 21.7 13 Noroeste 28 Norte 0 1013.9 -0.2 69
2019-08-03 06:00:00 21.7 18 Noroeste 28 Norte 0 1013.8 -0.6 68
2019-08-03 05:00:00 21.6 18 Noroeste 30 Norte 0 1013.9 -1 68
2019-08-03 04:00:00 21.7 16 Norte 28 Norte 0 1014.1 -0.9 77
2019-08-03 03:00:00 21.8 14 Norte 24 Norte 0 1014.4 -0.5 75
2019-08-03 02:00:00 22.1 14 Norte 24 Noroeste 0 1014.9 -0.1 71
2019-08-03 01:00:00 21.9 13 Noroeste 28 Noroeste 0 1015 0.3 69
2019-08-03 00:00:00 21.8 15 Noroeste 28 Noroeste 0 1014.9 0.5 71
2019-08-02 23:00:00 22.1 16 Noroeste 32 Norte 0 1015 0.8 72
2019-08-02 22:00:00 22.4 26 Norte 37 Nordeste 0 1014.7 0.6 78
2019-08-02 21:00:00 22.6 28 Norte 35 Norte 0 1014.4 0 75
2019-08-02 20:00:00 23 28 Norte 37 Norte 0 1014.2 -0.4 74
2019-08-02 19:00:00 23.5 23 Norte 30 Norte 0 1014.1 -0.8 72
2019-08-02 18:00:00 23.9 24 Norte 30 Norte 0 1014.4 -0.5 71
2019-08-02 17:00:00 24.7 23 Norte 30 Norte 0 1014.6 -0.7 68
2019-08-02 16:00:00 25.2 20 Norte 30 Nordeste 0 1014.9 -0.7 66
2019-08-02 15:00:00 25.1 21 Norte 30 Norte 0 1014.9 -0.7 66
2019-08-02 14:00:00 24.5 23 Norte 30 Nordeste 0 1015.3 0 69
2019-08-02 13:00:00 24.7 19 Norte 26 Norte 0 1015.6 0.4 70
2019-08-02 12:00:00 24.7 21 Norte 28 Nordeste 0 1015.6 0.9 70
2019-08-02 11:00:00 23.2 17 Nordeste 21 Nordeste 0 1015.3 0.8 72
2019-08-02 10:00:00 23.6 14 Norte 24 Noroeste 0 1015.2 1.1 63
2019-08-02 09:00:00 22.2 15 Noroeste 21 Noroeste 0 1014.7 0.7 67
2019-08-02 08:00:00 22 17 Noroeste 22 Noroeste 0 1014.5 0.5 68
2019-08-02 07:00:00 22 14 Norte 22 Norte 0 1014.1 0.1 71
2019-08-02 06:00:00 22.4 12 Norte 24 Noroeste 0 1014 -0.3 66
2019-08-02 05:00:00 22 14 Noroeste 30 Noroeste 0 1014 -0.6 69
2019-08-02 04:00:00 22 19 Noroeste 30 Noroeste 0 1014 -1 67
2019-08-02 03:00:00 22.1 23 Norte 33 Norte 0 1014.3 -0.8 74
2019-08-02 02:00:00 22.4 19 Noroeste 30 Noroeste 0 1014.6 0 66
2019-08-02 01:00:00 21.9 20 Norte 32 Norte 0 1015 0.3 77
2019-08-02 00:00:00 22.5 14 Norte 30 Norte 0 1015.1 0.9 66
2019-08-01 23:00:00 22.1 20 Noroeste 32 Noroeste 0 1014.6 1.1 67
2019-08-01 22:00:00 22 24 Norte 37 Norte 0 1014.7 1.2 77
2019-08-01 21:00:00 22.4 28 Norte 37 Norte 0 1014.2 0.5 78
2019-08-01 20:00:00 22.6 31 Norte 41 Norte 0 1013.5 -0.3 77
2019-08-01 19:00:00 22.9 30 Norte 39 Norte 0 1013.5 -0.4 80
2019-08-01 18:00:00 23.6 28 Norte 35 Norte 0 1013.7 -0.3 75
2019-08-01 17:00:00 24.3 23 Norte 33 Norte 0 1013.8 -0.5 73
2019-08-01 16:00:00 23.9 26 Norte 35 Nordeste 0 1013.9 -0.7 74
2019-08-01 15:00:00 24.6 25 Norte 33 Norte 0 1014 -0.2 70
2019-08-01 14:00:00 25.1 24 Norte 32 Norte 0 1014.3 0.1 68
2019-08-01 13:00:00 25.1 22 Norte 37 Norte 0 1014.6 0.6 69
2019-08-01 12:00:00 25 26 Norte 32 Norte 0 1014.2 0.6 68
2019-08-01 11:00:00 25 15 Norte 21 Norte 0 1014.2 1.1 66
2019-08-01 10:00:00 23.1 16 Norte 24 Norte 0 1014 1.3 73
2019-08-01 09:00:00 22.5 15 Norte 24 Noroeste 0 1013.6 1.2 69
2019-08-01 08:00:00 21.3 12 Noroeste 24 Noroeste 0 1013.1 0.4 65
2019-08-01 07:00:00 21.5 12 Noroeste 26 Noroeste 0 1012.7 -0.4 61
2019-08-01 06:00:00 21.3 16 Noroeste 28 Noroeste 0 1012.4 -1 61
2019-08-01 05:00:00 21.2 21 Noroeste 30 Noroeste 0 1012.7 -0.9 67
2019-08-01 04:00:00 21.1 15 Noroeste 39 Norte 0 1013.1 -0.8 65
2019-08-01 03:00:00 21.6 29 Norte 42 Norte 0 1013.4 -0.6 74
2019-08-01 02:00:00 21.7 24 Norte 33 Norte 0 1013.6 0.1 73
2019-08-01 01:00:00 21.5 19 Noroeste 37 Norte 0 1013.9 1 61
2019-08-01 00:00:00 21.6 23 Norte 48 Norte 0 1014 1 66
2019-07-31 23:00:00 21.9 39 Norte 54 Norte 0 1013.5 0.9 73
2019-07-31 22:00:00 22 39 Norte 48 Norte 0 1012.9 0.4 77
2019-07-31 21:00:00 22.2 30 Norte 41 Norte 0 1013 0.5 78
2019-07-31 20:00:00 22.3 31 Norte 42 Nordeste 0 1012.6 -0.1 78
2019-07-31 19:00:00 22.7 39 Nordeste 46 Nordeste 0 1012.5 -0.8 74
2019-07-31 18:00:00 23.3 36 Norte 46 Norte 0 1012.5 -1.1 69
2019-07-31 17:00:00 23.5 32 Norte 41 Norte 0 1012.7 -1.2 68
2019-07-31 16:00:00 24 23 Norte 42 Norte 0 1013.3 -0.9 66
2019-07-31 15:00:00 23.4 37 Norte 50 Nordeste 0 1013.6 -0.5 75
2019-07-31 14:00:00 24.7 31 Norte 41 Norte 0 1013.9 0 66
2019-07-31 13:00:00 23.1 32 Nordeste 46 Nordeste 0 1014.2 0.5 74
2019-07-31 12:00:00 23.9 34 Nordeste 46 Norte 0 1014.1 0.8 65
2019-07-31 11:00:00 23.3 37 Norte 46 Norte 0 1013.9 1.1 70
2019-07-31 10:00:00 22.3 30 Norte 41 Norte 0 1013.7 1.2 75
2019-07-31 09:00:00 21.3 24 Norte 48 Norte 0 1013.3 0.9 79
2019-07-31 08:00:00 21.5 28 Norte 39 Norte 0 1012.8 0.3 76
2019-07-31 07:00:00 21 30 Norte 54 Norte 0 1012.5 -0.4 81
2019-07-31 06:00:00 21.6 26 Norte 42 Norte 0 1012.4 -0.9 72
2019-07-31 05:00:00 21.8 38 Norte 48 Nordeste 0 1012.5 -1.6 70
2019-07-31 04:00:00 21.8 36 Norte 46 Norte 0 1012.9 -1.8 68
2019-07-31 03:00:00 21.9 39 Norte 50 Norte 0 1013.3 -1.7 66
2019-07-31 02:00:00 22.2 33 Norte 48 Norte 0 1014.1 -0.9 60
2019-07-31 01:00:00 22 31 Norte 48 Norte 0 1014.7 0.3 62
2019-07-31 00:00:00 22.1 31 Norte 46 Norte 0 1015 0.9 69
2019-07-30 23:00:00 22 36 Norte 46 Norte 0 1015 1.3 77
2019-07-30 22:00:00 22.1 37 Norte 46 Norte 0 1014.4 0.8 74
2019-07-30 21:00:00 22.5 33 Norte 46 Norte 0 1014.1 0.3 72
2019-07-30 20:00:00 22.5 38 Norte 48 Norte 0 1013.7 -0.3 74
2019-07-30 19:00:00 22.8 33 Norte 45 Nordeste 0 1013.6 -0.7 75
2019-07-30 18:00:00 23.3 33 Norte 46 Norte 0 1013.8 -1 76
2019-07-30 17:00:00 23.4 35 Norte 45 Norte 0 1014 -1.1 72
2019-07-30 16:00:00 23.8 31 Norte 41 Norte 0 1014.3 -1 72
2019-07-30 15:00:00 24.5 30 Norte 45 Norte 0 1014.8 -0.9 67
2019-07-30 14:00:00 23.5 39 Norte 50 Nordeste 0 1015.1 -0.6 75
2019-07-30 13:00:00 24.4 38 Nordeste 46 Nordeste 0 1015.3 0 72
2019-07-30 12:00:00 24.5 35 Norte 46 Norte 0 1015.7 0.8 70
2019-07-30 11:00:00 22.1 31 Norte 46 Nordeste 0.1 1015.7 1.5 85
2019-07-30 10:00:00 22.6 21 Norte 37 Norte 0 1015.3 1.5 81
2019-07-30 09:00:00 22.7 26 Norte 46 Norte 0 1014.9 1.5 80
2019-07-30 08:00:00 22.2 30 Norte 45 Norte 0 1014.2 0.7 86
2019-07-30 07:00:00 22.9 24 Norte 39 Nordeste 0 1013.8 0 82
2019-07-30 06:00:00 23.1 27 Norte 33 Norte 0 1013.4 -0.7 81
2019-07-30 05:00:00 23.7 14 Norte 35 Norte 0 1013.5 -1.2 71
2019-07-30 04:00:00 23.8 25 Norte 42 Norte 0 1013.8 -1.6 70
2019-07-30 03:00:00 22.9 24 Norte 33 Norte 0 1014.1 -1.2 82
2019-07-30 02:00:00 23.3 20 Norte 30 Norte 0 1014.7 -0.2 75
2019-07-30 01:00:00 23.6 23 Norte 37 Norte 0 1015.4 0.7 70
2019-07-30 00:00:00 23.4 22 Norte 35 Norte 0 1015.3 1 75
2019-07-29 23:00:00 23.7 19 Norte 33 Norte 0 1014.9 1.2 71
2019-07-29 22:00:00 23.5 16 Norte 37 Norte 0 1014.7 1.1 72
2019-07-29 21:00:00 23.7 25 Norte 41 Norte 0 1014.3 0.9 68
2019-07-29 20:00:00 24.1 27 Norte 41 Norte 0 1013.7 0 68
2019-07-29 19:00:00 23.6 27 Nordeste 41 Nordeste 0 1013.6 -0.4 76
2019-07-29 18:00:00 24.3 29 Nordeste 41 Nordeste 0 1013.4 -0.6 72
2019-07-29 17:00:00 25.2 29 Norte 41 Norte 0 1013.7 -0.3 66
2019-07-29 16:00:00 25.6 28 Norte 45 Nordeste 0 1014 -0.1 62
2019-07-29 15:00:00 24.9 38 Nordeste 50 Nordeste 0 1014 -0.2 66
2019-07-29 14:00:00 25.3 38 Norte 50 Nordeste 0 1014 0.1 62
2019-07-29 13:00:00 24.9 38 Norte 50 Norte 0 1014.1 0.9 69
2019-07-29 12:00:00 25.1 30 Norte 45 Norte 0 1014.2 1.4 69
2019-07-29 11:00:00 24.2 32 Norte 45 Nordeste 0 1013.9 1.3 72
2019-07-29 10:00:00 24 35 Norte 48 Nordeste 0 1013.2 1.1 70
2019-07-29 09:00:00 23.6 32 Norte 42 Norte 0 1012.8 0.9 65
2019-07-29 08:00:00 21.9 17 Noroeste 46 Norte 0 1012.6 0.8 68
2019-07-29 07:00:00 22 32 Norte 42 Norte 0 1012.1 0 77
2019-07-29 06:00:00 22.2 14 Noroeste 41 Norte 0 1011.9 -0.4 69
2019-07-29 05:00:00 22.5 29 Norte 37 Nordeste 0 1011.8 -0.6 79
2019-07-29 04:00:00 22.4 21 Norte 32 Norte 0 1012.1 -0.6 72
2019-07-29 03:00:00 22.4 29 Norte 45 Norte 0 1012.3 -0.8 79
2019-07-29 02:00:00 23 23 Norte 46 Norte 0 1012.4 -0.5 68
2019-07-29 01:00:00 22.7 26 Norte 39 Norte 0 1012.7 0.3 77
2019-07-29 00:00:00 22.7 29 Norte 35 Norte 0 1013.1 1.1 80
2019-07-28 23:00:00 22.6 24 Norte 37 Norte 0 1012.9 1.5 83
2019-07-28 22:00:00 22.8 27 Norte 35 Norte 0 1012.4 1.7 83
2019-07-28 21:00:00 22.8 29 Nordeste 39 Nordeste 0 1012 1.3 84
2019-07-28 20:00:00 22.4 22 Norte 35 Norte 0 1011.4 0.5 90
2019-07-28 19:00:00 23.5 26 Norte 35 Norte 0 1010.7 -0.4 84
2019-07-28 18:00:00 23.7 18 Norte 35 Norte 0 1010.7 -0.7 85
2019-07-28 17:00:00 23.2 29 Nordeste 39 Norte 0 1010.9 -0.8 87
2019-07-28 16:00:00 24.9 28 Norte 46 Norte 0 1011.1 -1 77
2019-07-28 15:00:00 25.7 22 Norte 37 Norte 0 1011.4 -0.8 71
2019-07-28 14:00:00 24.8 30 Norte 48 Nordeste 0 1011.7 -0.5 75
2019-07-28 13:00:00 25.1 30 Norte 41 Nordeste 0 1012.1 0.2 74
2019-07-28 12:00:00 24.8 26 Norte 41 Norte 0 1012.2 0.3 76
2019-07-28 11:00:00 24 22 Nordeste 39 Norte 0 1012.2 0.4 76
2019-07-28 10:00:00 23.6 27 Norte 37 Norte 0 1011.9 0.3 76
2019-07-28 09:00:00 23.5 16 Noroeste 33 Noroeste 0 1011.9 0.5 68
2019-07-28 08:00:00 22.8 21 Noroeste 33 Norte 0 1011.8 0.3 70
2019-07-28 07:00:00 22.7 23 Norte 33 Norte 0 1011.6 -0.4 75
2019-07-28 06:00:00 22.6 23 Norte 30 Norte 0 1011.4 -1.3 77
2019-07-28 05:00:00 22.7 23 Norte 32 Norte 0 1011.5 -1.7 73
2019-07-28 04:00:00 22.4 18 Norte 30 Norte 0 1012 -1.9 75
2019-07-28 03:00:00 22.3 27 Norte 35 Norte 0 1012.7 -1.4 82
2019-07-28 02:00:00 22.6 18 Noroeste 30 Noroeste 0 1013.2 -1 67
2019-07-28 01:00:00 21.8 18 Noroeste 32 Noroeste 0 1013.9 0.2 68
2019-07-28 00:00:00 21.8 17 Noroeste 32 Norte 0 1014.1 0.8 70
2019-07-27 23:00:00 22 22 Norte 35 Norte 0 1014.2 1 78
2019-07-27 22:00:00 22.2 29 Norte 35 Norte 0 1013.7 0.4 80
2019-07-26 11:00:00 25.3 28 Norte 35 Norte 0 1014.7 1.3 72
2019-07-26 10:00:00 24.9 22 Norte 37 Norte 0 1014.5 1.3 74
2019-07-26 09:00:00 24.7 22 Norte 30 Norte 0 1013.9 0.6 72
2019-07-26 08:00:00 23 16 Norte 28 Noroeste 0 1013.4 0 77
2019-07-26 07:00:00 23.3 18 Norte 33 Noroeste 0 1013.2 0.1 70
2019-07-26 06:00:00 23 19 Norte 37 Norte 0 1013.3 0 76
2019-07-26 05:00:00 22.9 18 Norte 33 Norte 0 1013.4 -0.3 72
2019-07-26 04:00:00 22.7 16 Noroeste 32 Norte 0 1013.1 -1.1 79
2019-07-26 03:00:00 23.2 20 Norte 30 Noroeste 0 1013.3 -1 74
2019-07-26 02:00:00 23.4 18 Norte 30 Noroeste 0 1013.7 -0.2 72
2019-07-26 01:00:00 23 24 Norte 33 Norte 0 1014.2 0.9 83
2019-07-26 00:00:00 23 25 Norte 37 Nordeste 0 1014.3 1.6 82
2019-07-25 23:00:00 22.9 28 Norte 42 Norte 0 1013.9 1.8 84
2019-07-25 22:00:00 22.9 30 Norte 42 Nordeste 0 1013.3 1.7 83
2019-07-25 21:00:00 23.3 31 Nordeste 41 Norte 0 1012.7 0.8 79
2019-07-25 20:00:00 23.5 34 Nordeste 42 Nordeste 0 1012.1 -0.1 79
2019-07-25 19:00:00 24 32 Norte 42 Nordeste 0 1011.6 -1 76
2019-07-25 18:00:00 24.2 29 Norte 41 Nordeste 0 1011.9 -0.5 76
2019-07-25 17:00:00 24.7 26 Norte 35 Nordeste 0 1012.2 -0.7 75
2019-07-25 16:00:00 25 26 Norte 39 Norte 0 1012.6 -0.3 74
2019-07-25 15:00:00 25.2 23 Norte 37 Nordeste 0 1012.4 -0.8 73
2019-07-25 14:00:00 25.4 24 Norte 30 Norte 0 1012.9 0 72
2019-07-25 13:00:00 25.6 18 Norte 32 Norte 0 1012.9 0.6 69
2019-07-25 12:00:00 24.7 23 Norte 30 Norte 0 1013.2 1.1 72
2019-07-25 11:00:00 24 24 Norte 37 Norte 0 1012.9 1.4 76
2019-07-25 10:00:00 23.6 26 Norte 33 Norte 0 1012.3 0.8 77
2019-07-25 09:00:00 22.8 18 Norte 28 Norte 0 1012.1 0.8 75
2019-07-25 08:00:00 20.4 12 Noroeste 17 Norte 0 1011.5 0.3 72
2019-07-25 07:00:00 20.6 12 Norte 22 Norte 0 1011.5 0.1 83
2019-07-25 06:00:00 20.7 10 Norte 24 Norte 0 1011.3 -0.5 79
2019-07-25 05:00:00 21 14 Noroeste 24 Norte 0 1011.2 -0.9 79
2019-07-25 04:00:00 21.2 13 Noroeste 32 Nordeste 0 1011.4 -1.3 78
2019-07-25 03:00:00 21.6 17 Norte 35 Norte 0 1011.8 -0.6 82
2019-07-25 02:00:00 21.7 26 Norte 37 Norte 0 1012.1 -0.2 84
2019-07-25 01:00:00 21.8 22 Norte 39 Norte 0 1012.7 1.1 86
2019-07-25 00:00:00 22 30 Norte 41 Nordeste 0 1012.4 1.2 87
2019-07-24 23:00:00 22 22 Nordeste 37 Norte 0 1012.3 1.4 82
2019-07-24 22:00:00 22.1 27 Norte 35 Norte 0 1011.6 0.8 85
2019-07-24 21:00:00 22.5 29 Norte 39 Nordeste 0 1011.2 -0.3 83
2019-07-24 20:00:00 23 30 Norte 41 Norte 0 1010.9 -0.7 80
2019-07-24 19:00:00 23.6 30 Nordeste 41 Nordeste 0 1010.8 -0.9 77
2019-07-24 18:00:00 24.4 18 Norte 30 Norte 0 1011.5 -0.7 74
2019-07-24 17:00:00 25.1 20 Norte 30 Norte 0 1011.6 -0.8 71
2019-07-24 16:00:00 25.2 21 Norte 32 Norte 0 1011.7 -0.9 70
2019-07-24 15:00:00 25.8 15 Norte 24 Norte 0 1012.2 -0.5 66
2019-07-24 14:00:00 25.5 21 Norte 35 Norte 0 1012.4 0 67
2019-07-24 13:00:00 25.1 25 Norte 35 Nordeste 0 1012.6 0.5 69
2019-07-24 12:00:00 24.4 26 Norte 35 Nordeste 0 1012.7 0.7 72
2019-07-24 11:00:00 23.9 27 Norte 42 Nordeste 0 1012.4 1.2 72
2019-07-24 10:00:00 23.5 29 Norte 41 Nordeste 0 1012.1 1 73
2019-07-24 09:00:00 23.1 22 Norte 35 Norte 0 1012 0.6 75
2019-07-24 08:00:00 21.3 11 Norte 24 Norte 0 1011.2 -0.5 66
2019-07-24 07:00:00 21.3 17 Noroeste 32 Noroeste 0 1011.1 -0.9 70
2019-07-24 06:00:00 21.6 16 Noroeste 30 Norte 0 1011.4 -1.2 71
2019-07-24 05:00:00 21.5 13 Norte 28 Norte 0 1011.7 -1.7 74
2019-07-24 04:00:00 21.5 17 Noroeste 28 Norte 0 1012 -1.9 72
2019-07-24 03:00:00 21.5 18 Norte 35 Norte 0 1012.6 -1.4 74
2019-07-24 02:00:00 21.8 15 Norte 41 Norte 0 1013.4 -0.7 74
2019-07-24 01:00:00 21.9 8 Norte 39 Norte 0 1013.9 0.3 72
2019-07-24 00:00:00 22.1 18 Norte 42 Norte 0 1014 0.8 71
2019-07-23 23:00:00 22.1 37 Norte 48 Norte 0 1014.1 1.2 79
2019-07-23 22:00:00 22.2 30 Norte 50 Nordeste 0 1013.6 0.9 79
2019-07-23 21:00:00 22.6 41 Norte 55 Norte 0 1013.2 0.2 73
2019-07-23 20:00:00 22.7 40 Norte 55 Nordeste 0 1012.9 -0.4 73
2019-07-23 19:00:00 23 39 Nordeste 48 Nordeste 0 1012.7 -1 73
2019-07-23 18:00:00 23.6 33 Norte 42 Norte 0 1013 -1 71
2019-07-23 17:00:00 24 35 Norte 45 Norte 0 1013.3 -0.8 69
2019-07-23 16:00:00 24.1 31 Norte 52 Norte 0 1013.7 -0.4 69
2019-07-23 15:00:00 24.2 36 Nordeste 50 Nordeste 0 1014 -0.1 67
2019-07-23 14:00:00 24.4 35 Norte 45 Nordeste 0 1014.1 0.1 66
2019-07-23 13:00:00 24.1 37 Norte 46 Nordeste 0 1014.1 0.1 66
2019-07-23 12:00:00 23.7 33 Norte 46 Nordeste 0 1014.1 0.2 67
2019-07-23 11:00:00 23.8 29 Norte 41 Norte 0 1014 0.3 66
2019-07-23 10:00:00 23 31 Norte 42 Norte 0 1014 0.2 68
2019-07-23 09:00:00 21.5 21 Norte 33 Norte 0 1013.9 0.3 71
2019-07-23 08:00:00 21.1 18 Noroeste 33 Noroeste 0 1013.7 0.2 67
2019-07-23 07:00:00 20.9 15 Norte 35 Norte 0 1013.8 0.1 70
2019-07-23 06:00:00 20.9 18 Noroeste 48 Nordeste 0 1013.6 -0.4 68
2019-07-23 05:00:00 20.6 11 Noroeste 48 Noroeste 0 1013.5 -1.3 69
2019-07-23 04:00:00 20.9 16 Norte 48 Norte 0 1013.7 -1.7 69
2019-07-23 03:00:00 20.9 17 Noroeste 41 Norte 0 1014 -1.6 68
2019-07-23 02:00:00 21.2 15 Noroeste 41 Nordeste 0 1014.8 -0.5 68
2019-07-23 01:00:00 21.5 18 Norte 46 Norte 0 1015.4 0.5 67
2019-07-23 00:00:00 21.9 31 Norte 46 Norte 0 1015.6 1.3 70
2019-07-22 23:00:00 21.9 20 Norte 42 Norte 0 1015.3 1.3 69
2019-07-22 22:00:00 21.9 35 Norte 50 Norte 0 1014.9 1.1 72
2019-07-22 21:00:00 21.9 40 Norte 50 Norte 0 1014.3 0.7 72
2019-07-22 20:00:00 22.1 40 Norte 52 Nordeste 0 1014 -0.1 73
2019-07-22 19:00:00 22.7 38 Norte 48 Nordeste 0 1013.8 -1 71
2019-07-22 18:00:00 23.4 34 Norte 46 Norte 0 1013.6 -1.4 69
2019-07-22 17:00:00 23.7 32 Norte 42 Nordeste 0 1014.1 -1.5 67
2019-07-22 16:00:00 24 31 Norte 42 Nordeste 0 1014.8 -0.7 66
2019-07-22 15:00:00 24.1 34 Nordeste 46 Nordeste 0 1015 -0.7 66
2019-07-22 14:00:00 24.3 33 Norte 42 Nordeste 0 1015.6 0 65
2019-07-22 13:00:00 24 34 Norte 45 Norte 0 1015.5 0 65
2019-07-22 12:00:00 24.3 26 Norte 39 Norte 0 1015.7 0 64
2019-07-22 11:00:00 23.7 28 Norte 37 Norte 0 1015.6 0.1 65
2019-07-22 10:00:00 21.7 25 Norte 39 Norte 0 1015.5 0.1 70
2019-07-22 09:00:00 21.7 21 Norte 39 Norte 0 1015.7 0.4 70
2019-07-22 08:00:00 21.3 19 Noroeste 33 Norte 0 1015.5 0.3 69
2019-07-22 07:00:00 21.4 24 Norte 39 Norte 0 1015.4 0 73
2019-07-22 06:00:00 21.4 18 Norte 37 Norte 0 1015.3 -0.4 72
2019-07-22 05:00:00 21.6 25 Norte 37 Norte 0 1015.2 -1.2 75
2019-07-22 04:00:00 21.7 28 Norte 39 Norte 0 1015.4 -1.2 75
2019-07-22 03:00:00 21.8 24 Norte 35 Norte 0 1015.7 -1.2 75
2019-07-22 02:00:00 21.8 25 Norte 37 Norte 0 1016.4 -0.5 76
2019-07-22 01:00:00 22 29 Norte 37 Norte 0 1016.6 0.3 78
2019-07-22 00:00:00 22.2 28 Norte 35 Norte 0 1016.9 1.1 82
2019-07-21 23:00:00 22.3 22 Norte 32 Norte 0 1016.9 1.6 86
2019-07-21 22:00:00 22.9 22 Norte 32 Norte 0 1016.3 1.2 80
2019-07-21 21:00:00 22.9 22 Norte 30 Norte 0 1015.8 0.5 74
2019-07-21 20:00:00 23.5 24 Norte 33 Norte 0 1015.3 -0.4 72
2019-07-21 19:00:00 24.1 21 Norte 32 Norte 0 1015.1 -0.6 71
2019-07-21 18:00:00 24.9 19 Norte 26 Norte 0 1015.3 -0.6 67
2019-07-21 17:00:00 25.4 18 Norte 28 Norte 0 1015.7 -0.4 66
2019-07-21 16:00:00 25.9 21 Norte 28 Norte 0 1015.7 -0.7 64
2019-07-21 15:00:00 26 20 Norte 28 Norte 0 1015.9 -0.7 63
2019-07-21 14:00:00 26 18 Norte 28 Norte 0 1016.1 -0.1 62
2019-07-21 13:00:00 25.4 22 Norte 30 Norte 0 1016.4 0.5 65
2019-07-21 12:00:00 25.7 20 Norte 26 Norte 0 1016.6 1.1 66
2019-07-21 11:00:00 24.8 15 Norte 28 Nordeste 0 1016.2 0.9 63
2019-07-21 10:00:00 24.1 18 Norte 24 Norte 0 1015.9 0.8 74
2019-07-21 09:00:00 22.8 15 Norte 30 Noroeste 0 1015.5 0.6 67
2019-07-21 08:00:00 22.1 18 Norte 28 Norte 0 1015.3 0.5 74
2019-07-21 07:00:00 22.3 17 Noroeste 30 Norte 0 1015.1 0.1 71
2019-07-21 06:00:00 22.2 23 Norte 30 Norte 0 1014.9 -0.6 78
2019-07-21 05:00:00 22.3 21 Noroeste 28 Noroeste 0 1014.8 -1.2 76
2019-07-21 04:00:00 22.2 24 Norte 30 Norte 0 1015 -1.4 82
2019-07-21 03:00:00 22.6 17 Norte 26 Norte 0 1015.5 -1 75
2019-07-21 02:00:00 22.4 18 Norte 30 Norte 0 1016 -0.2 81
2019-07-21 01:00:00 22.6 18 Norte 30 Norte 0 1016.4 1 78
2019-07-21 00:00:00 22.6 23 Norte 35 Norte 0 1016.5 1.6 78
2019-07-20 23:00:00 22.4 28 Norte 35 Norte 0 1016.2 1.9 86
2019-07-20 22:00:00 22.5 24 Norte 35 Norte 0 1015.4 1.2 84
2019-07-20 21:00:00 22.6 28 Norte 41 Norte 0 1014.9 0.5 84
2019-07-20 20:00:00 22.8 28 Norte 39 Norte 0 1014.3 -0.5 82
2019-07-20 19:00:00 23.2 29 Norte 41 Norte 0 1014.2 -0.6 81
2019-07-20 18:00:00 23.8 28 Norte 37 Norte 0 1014.4 -0.8 74
2019-07-20 17:00:00 24.5 21 Norte 42 Nordeste 0 1014.8 -0.6 70
2019-07-20 16:00:00 25.2 21 Nordeste 32 Norte 0 1014.8 -0.6 69
2019-07-20 15:00:00 26.5 17 Norte 32 Norte 0 1015.2 0.2 61
2019-07-20 14:00:00 25.7 28 Norte 37 Nordeste 0 1015.4 0.7 66
2019-07-20 13:00:00 24.5 28 Norte 39 Nordeste 0 1015.4 1 70
2019-07-20 12:00:00 24.5 30 Nordeste 37 Norte 0 1015 0.8 69
2019-07-20 11:00:00 23.1 30 Norte 39 Norte 0 1014.7 1.1 75
2019-07-20 10:00:00 23.5 21 Norte 35 Norte 0 1014.4 1.4 61
2019-07-20 09:00:00 22.5 21 Norte 33 Noroeste 0 1014.2 1.5 70
2019-07-20 08:00:00 21.1 22 Norte 48 Norte 0 1013.6 1.1 82
2019-07-20 07:00:00 22.3 30 Norte 41 Norte 0 1013 0.4 73
2019-07-20 06:00:00 22.1 27 Norte 42 Norte 0 1012.7 -0.6 81
2019-07-20 05:00:00 22.6 33 Norte 48 Norte 0 1012.5 -1.3 76
2019-07-20 04:00:00 23 27 Norte 48 Norte 0 1012.6 -1.2 64
2019-07-20 03:00:00 22.8 35 Norte 52 Norte 0 1013.3 -0.8 68
2019-07-20 02:00:00 22.6 33 Norte 59 Norte 0 1013.8 -0.1 68
2019-07-20 01:00:00 22.1 30 Norte 45 Norte 0 1013.8 0.6 77
2019-07-20 00:00:00 22.4 30 Norte 41 Norte 0 1014.1 1.1 75
2019-07-19 23:00:00 22 33 Norte 46 Norte 0 1013.9 1.1 78
2019-07-19 22:00:00 22 36 Norte 48 Norte 0 1013.2 0.4 81
2019-07-19 21:00:00 22.8 30 Norte 52 Norte 0 1013 0.3 70
2019-07-19 20:00:00 22.9 40 Norte 52 Norte 0 1012.8 0 71
2019-07-19 19:00:00 23.4 39 Norte 55 Norte 0 1012.8 -0.2 69
2019-07-19 18:00:00 23.6 42 Norte 52 Norte 0 1012.7 -0.8 68
2019-07-19 17:00:00 23.5 42 Nordeste 58 Nordeste 0 1012.8 -1.2 75
2019-07-19 16:00:00 23.9 40 Nordeste 55 Nordeste 0 1013 -1.1 75
2019-07-19 15:00:00 24.3 39 Nordeste 50 Nordeste 0 1013.5 -0.5 72
2019-07-19 14:00:00 25.2 31 Norte 48 Nordeste 0 1014 0.5 62
2019-07-19 13:00:00 24.4 39 Nordeste 50 Nordeste 0 1014.1 0.7 68
2019-07-19 12:00:00 24 40 Norte 54 Nordeste 0 1014 0.5 71
2019-07-19 11:00:00 23.3 44 Nordeste 63 Nordeste 0 1013.5 0.3 74
2019-07-19 10:00:00 24 37 Norte 50 Norte 0 1013.4 0.6 62
2019-07-19 09:00:00 21.9 24 Norte 45 Norte 0 1013.5 0.7 70
2019-07-19 08:00:00 21.8 38 Norte 52 Norte 0 1013.2 0.6 73
2019-07-19 07:00:00 21.6 40 Norte 48 Norte 0 1012.8 0 77
2019-07-19 06:00:00 22 23 Noroeste 35 Noroeste 0 1012.8 -0.4 59
2019-07-19 05:00:00 21.7 23 Noroeste 50 Norte 0 1012.6 -1.2 60
2019-07-19 04:00:00 21.6 33 Norte 45 Norte 0 1012.8 -1.4 74
2019-07-19 03:00:00 22.1 29 Norte 48 Norte 0 1013.2 -1.2 64
2019-07-19 02:00:00 22 19 Norte 41 Norte 0 1013.8 -0.4 61
2019-07-19 01:00:00 21.9 35 Norte 48 Norte 0 1014.2 0.2 70
2019-07-19 00:00:00 21.9 39 Norte 48 Norte 0 1014.4 0.9 72
2019-07-18 23:00:00 22.2 30 Norte 46 Norte 0 1014.2 0.7 68
2019-07-18 22:00:00 21.9 36 Norte 46 Norte 0 1014 0.7 74
2019-07-18 21:00:00 22 32 Norte 46 Norte 0 1013.5 0 73
2019-07-18 20:00:00 22.4 35 Norte 48 Norte 0 1013.5 -0.3 72
2019-07-18 19:00:00 22.9 38 Norte 52 Norte 0 1013.3 -0.6 66
2019-07-18 18:00:00 23.3 42 Norte 54 Nordeste 0 1013.5 -1.1 68
2019-07-18 17:00:00 23.5 41 Norte 55 Nordeste 0 1013.8 -1.2 65
2019-07-18 16:00:00 23.4 41 Norte 52 Nordeste 0 1013.9 -1.4 69
2019-07-18 15:00:00 24.1 37 Norte 46 Nordeste 0 1014.6 -1 66
2019-07-18 14:00:00 24.3 33 Norte 48 Norte 0 1015 -0.7 63
2019-07-18 13:00:00 24.2 39 Norte 50 Norte 0 1015.3 -0.3 60
2019-07-18 12:00:00 24.2 34 Norte 46 Norte 0 1015.6 0.3 61
2019-07-18 11:00:00 22.4 28 Norte 46 Norte 0 1015.7 1 65
2019-07-18 10:00:00 22.3 33 Norte 42 Norte 0 1015.6 0.9 67
2019-07-18 09:00:00 21.7 28 Norte 37 Noroeste 0 1015.3 0.7 69
2019-07-18 08:00:00 21.5 24 Noroeste 35 Norte 0 1014.7 0 63
2019-07-18 07:00:00 21.6 30 Norte 39 Norte 0 1014.7 -0.1 70
2019-07-18 06:00:00 21.7 24 Norte 35 Norte 0 1014.6 -0.6 66
2019-07-18 05:00:00 21.7 22 Norte 39 Norte 0 1014.7 -1 67
2019-07-18 04:00:00 21.7 33 Norte 45 Norte 0 1014.8 -1.4 70
2019-07-18 03:00:00 21.8 32 Norte 42 Norte 0 1015.2 -1.2 71
2019-07-18 02:00:00 22 29 Norte 42 Norte 0 1015.7 -0.7 70
2019-07-18 01:00:00 21.9 34 Norte 42 Norte 0 1016.2 0.3 77
2019-07-18 00:00:00 22.4 21 Norte 33 Norte 0 1016.4 1.1 69